Terminal Aerodrome Forecast
Issued by NWS Medford, OR

Home | Current Version | Previous Version | Text Only | Print | Product List | Glossary On
Versions: 1 2 3 4 5 6 7 8 9 10 11 12 13 14 15 16 17 18 19
000
FTUS46 KMFR 181100
TAFMFR
TAF
KMFR 181120Z 1812/1912 VRB03KT P6SM VCSH SCT040 OVC080
     FM182300 31009KT P6SM SCT035 BKN070
     FM190300 VRB03KT P6SM SCT035 BKN070=

USA.gov is the U.S. government's official web portal to all federal, state and local government web resources and services.